Rockport, Texas
Current Conditions -  °F | °C
As of 1:53 PM on Friday 31 Oct 2014 (Local Time) from KRKP Reporting Station
Clear Clear  
Wind Chill: 82°   Ceiling: Unl
Heat Index: 82°   Visibility: 10mi
Dew Point: 47°   Wind: 15mph
Humidity: 29%   Direction: 50°NE
Pressure: 30.16"   Gusts: 21mph
Location:  28.01°N, 97.06°W
Report Text: KRKP 311853Z AUTO 05013G18KT 10SM CLR 28/08 A3016 RMK AO2 SLP215 T02780083
Loading
Personal Weather Stations






























Interactive Weather Map
Tropical Storm Tracking
New forecast layout! Learn more

10-Day Weather Forecast

Advertisements
Track Severe Weather on mobile